| time (UTC) | temp C | wind direction | speed KPH | gust KPH | rain 1hr cm | rain 24hr cm | rain mn cm | humidity % | barometer mb |
| 20260904182130 | 15 | 340 | 1.6 | 3.2 | 0.00 | 0.33 | 0.33 | 62 | 1026.5 |
| 20260904181631 | 15 | 250 | 0.0 | 1.6 | 0.00 | 0.33 | 0.33 | 69 | 1026.5 |
| 20260904181130 | 14 | 309 | 0.0 | 1.6 | 0.00 | 0.33 | 0.33 | 69 | 1026.4 |
| 20260904180632 | 14 | 11 | 0.0 | 1.6 | 0.00 | 0.33 | 0.33 | 69 | 1026.4 |
| 20260904180620 | 13 | 243 | 0.0 | 1.6 | 0.00 | 0.33 | 0.33 | 72 | 1026.4 |
| 20260904175630 | 13 | 219 | 0.0 | 1.6 | 0.00 | 0.33 | 0.33 | 72 | 1026.6 |
| 20260904175130 | 13 | 51 | 0.0 | 0.0 | 0.00 | 0.33 | 0.33 | 73 | 1026.5 |
| 20260904174630 | 13 | 51 | 0.0 | 4.8 | 0.00 | 0.33 | 0.33 | 73 | 1026.6 |
| 20260904174131 | 13 | 52 | 0.0 | 4.8 | 0.00 | 0.33 | 0.33 | 72 | 1026.6 |
| 20260904173635 | 13 | 94 | 0.0 | 1.6 | 0.00 | 0.33 | 0.33 | 75 | 1026.6 |
| 20260904173127 | 13 | 216 | 0.0 | 0.0 | 0.00 | 0.33 | 0.33 | 73 | 1026.5 |
| 20260904172626 | 13 | 216 | 0.0 | 1.6 | 0.00 | 0.33 | 0.33 | 72 | 1026.5 |
| 20260904172130 | 13 | 212 | 0.0 | 1.6 | 0.00 | 0.33 | 0.33 | 73 | 1026.5 |
| 20260904171629 | 13 | 324 | 0.0 | 1.6 | 0.00 | 0.33 | 0.33 | 74 | 1026.4 |
| 20260904171129 | 13 | 299 | 0.0 | 3.2 | 0.00 | 0.33 | 0.33 | 76 | 1026.3 |
| 20260904170629 | 13 | 258 | 0.0 | 3.2 | 0.00 | 0.33 | 0.33 | 80 | 1026.4 |
| 20260904170129 | 13 | 226 | 0.0 | 1.6 | 0.00 | 0.33 | 0.33 | 81 | 1026.3 |
| 20260904165626 | 12 | 340 | 0.0 | 1.6 | 0.00 | 0.33 | 0.33 | 82 | 1026.3 |
| 20260904165125 | 12 | 24 | 0.0 | 3.2 | 0.00 | 0.33 | 0.33 | 83 | 1026.2 |
| 20260904164627 | 12 | 24 | 0.0 | 3.2 | 0.00 | 0.33 | 0.33 | 84 | 1026.2 |
| 20260904164125 | 12 | 331 | 0.0 | 3.2 | 0.00 | 0.33 | 0.33 | 86 | 1026.2 |
| 20260904163629 | 12 | 261 | 0.0 | 1.6 | 0.00 | 0.33 | 0.33 | 88 | 1026.1 |
| 20260904163128 | 12 | 20 | 0.0 | 1.6 | 0.00 | 0.33 | 0.33 | 87 | 1026.2 |
| 20260904162628 | 12 | 20 | 0.0 | 1.6 | 0.00 | 0.33 | 0.33 | 88 | 1026.1 |
| 20260904162131 | 12 | 23 | 0.0 | 1.6 | 0.00 | 0.33 | 0.33 | 88 | 1026.1 |
| 20260904161628 | 11 | 47 | 0.0 | 1.6 | 0.00 | 0.33 | 0.33 | 87 | 1026.2 |
| 20260904161134 | 12 | 355 | 0.0 | 1.6 | 0.00 | 0.33 | 0.33 | 87 | 1026.3 |
| 20260904160627 | 12 | 34 | 0.0 | 1.6 | 0.00 | 0.33 | 0.33 | 90 | 1026.3 |
| 20260904160351 | 11 | 251 | 0.0 | 0.0 | 0.00 | 0.33 | 0.33 | 91 | 1026.2 |
| 20260904155628 | 11 | 251 | 0.0 | 1.6 | 0.00 | 0.33 | 0.33 | 92 | 1026.1 |
| 20260904155127 | 11 | 251 | 0.0 | 1.6 | 0.00 | 0.33 | 0.33 | 92 | 1026.2 |
| 20260904154627 | 11 | 251 | 0.0 | 0.0 | 0.00 | 0.33 | 0.33 | 93 | 1026.1 |
| 20260904154355 | 11 | 251 | 0.0 | 0.0 | 0.00 | 0.33 | 0.33 | 93 | 1026.1 |
| 20260904153627 | 10 | 251 | 0.0 | 0.0 | 0.00 | 0.33 | 0.33 | 93 | 1026.1 |
| 20260904153127 | 10 | 251 | 0.0 | 0.0 | 0.00 | 0.33 | 0.33 | 94 | 1026.1 |
| 20260904152628 | 10 | 251 | 0.0 | 0.0 | 0.00 | 0.33 | 0.33 | 94 | 1026.0 |
| 20260904152126 | 10 | 251 | 0.0 | 0.0 | 0.00 | 0.33 | 0.33 | 94 | 1026.0 |
| 20260904151848 | 10 | 251 | 0.0 | 3.2 | 0.00 | 0.33 | 0.33 | 94 | 1026.0 |
| 20260904151126 | 10 | 251 | 0.0 | 3.2 | 0.00 | 0.33 | 0.33 | 94 | 1026.0 |
| 20260904150854 | 10 | 259 | 0.0 | 1.6 | 0.00 | 0.33 | 0.33 | 94 | 1025.8 |
| 20260904150131 | 10 | 247 | 0.0 | 1.6 | 0.00 | 0.33 | 0.33 | 94 | 1025.8 |
| 20260904145627 | 10 | 247 | 0.0 | 1.6 | 0.00 | 0.33 | 0.33 | 94 | 1025.7 |
| 20260904145126 | 10 | 247 | 0.0 | 0.0 | 0.00 | 0.33 | 0.33 | 94 | 1025.8 |
| 20260904144625 | 10 | 247 | 0.0 | 0.0 | 0.00 | 0.33 | 0.33 | 94 | 1025.7 |
| 20260904144125 | 10 | 245 | 0.0 | 0.0 | 0.00 | 0.33 | 0.33 | 94 | 1025.6 |
| 20260904143626 | 10 | 247 | 0.0 | 0.0 | 0.00 | 0.33 | 0.33 | 94 | 1025.5 |
| 20260904143127 | 10 | 247 | 0.0 | 0.0 | 0.00 | 0.33 | 0.33 | 94 | 1025.6 |
| 20260904142625 | 9 | 245 | 0.0 | 0.0 | 0.00 | 0.33 | 0.33 | 94 | 1025.4 |
| 20260904142125 | 9 | 247 | 0.0 | 0.0 | 0.00 | 0.33 | 0.33 | 94 | 1025.5 |
| 20260904141625 | 9 | 245 | 0.0 | 0.0 | 0.00 | 0.33 | 0.33 | 94 | 1025.4 |
| 20260904141125 | 9 | 247 | 0.0 | 0.0 | 0.00 | 0.33 | 0.33 | 94 | 1025.4 |
| 20260904140852 | 9 | 247 | 0.0 | 0.0 | 0.00 | 0.33 | 0.33 | 94 | 1025.2 |
| 20260904140125 | 9 | 247 | 0.0 | 0.0 | 0.00 | 0.33 | 0.33 | 94 | 1025.2 |
| 20260904135626 | 9 | 247 | 0.0 | 0.0 | 0.00 | 0.33 | 0.33 | 94 | 1025.1 |
| 20260904135125 | 9 | 247 | 0.0 | 0.0 | 0.00 | 0.33 | 0.33 | 94 | 1025.1 |
| 20260904134626 | 9 | 245 | 0.0 | 0.0 | 0.03 | 0.33 | 0.33 | 94 | 1024.9 |
| 20260904134124 | 9 | 247 | 0.0 | 0.0 | 0.03 | 0.33 | 0.33 | 94 | 1024.9 |
| 20260904133852 | 9 | 247 | 0.0 | 0.0 | 0.03 | 0.33 | 0.33 | 94 | 1024.8 |
| 20260904133341 | 9 | 247 | 0.0 | 0.0 | 0.03 | 0.33 | 0.33 | 94 | 1024.8 |
| 20260904132845 | 9 | 247 | 0.0 | 0.0 | 0.03 | 0.33 | 0.33 | 94 | 1024.7 |
| 20260904132124 | 9 | 245 | 0.0 | 0.0 | 0.05 | 0.33 | 0.33 | 94 | 1024.6 |
| 20260904131624 | 9 | 247 | 0.0 | 0.0 | 0.05 | 0.33 | 0.33 | 94 | 1024.6 |
| 20260904131345 | 9 | 247 | 0.0 | 0.0 | 0.08 | 0.33 | 0.33 | 93 | 1024.6 |
| 20260904130623 | 9 | 247 | 0.0 | 0.0 | 0.10 | 0.33 | 0.33 | 93 | 1024.5 |
| 20260904130343 | 9 | 245 | 0.0 | 0.0 | 0.13 | 0.33 | 0.33 | 93 | 1024.5 |
| 20260904125624 | 9 | 247 | 0.0 | 0.0 | 0.15 | 0.33 | 0.33 | 93 | 1024.4 |
| 20260904125123 | 9 | 245 | 0.0 | 0.0 | 0.15 | 0.33 | 0.33 | 93 | 1024.2 |
| 20260904124623 | 9 | 247 | 0.0 | 1.6 | 0.15 | 0.30 | 0.30 | 93 | 1024.4 |
| 20260904124123 | 9 | 247 | 0.0 | 1.6 | 0.18 | 0.30 | 0.30 | 93 | 1024.4 |
| 20260904123850 | 9 | 245 | 0.0 | 1.6 | 0.18 | 0.30 | 0.30 | 93 | 1024.4 |
| 20260904123123 | 9 | 245 | 0.0 | 0.0 | 0.20 | 0.30 | 0.30 | 93 | 1024.4 |
| 20260904123112 | 9 | 247 | 0.0 | 0.0 | 0.20 | 0.30 | 0.30 | 93 | 1024.4 |
| 20260904122122 | 10 | 247 | 0.0 | 0.0 | 0.18 | 0.28 | 0.28 | 93 | 1024.2 |
| 20260904121624 | 10 | 247 | 0.0 | 0.0 | 0.20 | 0.28 | 0.28 | 93 | 1024.2 |
| 20260904121122 | 10 | 247 | 0.0 | 0.0 | 0.18 | 0.25 | 0.25 | 93 | 1024.1 |
| 20260904120622 | 10 | 247 | 0.0 | 3.2 | 0.15 | 0.23 | 0.25 | 93 | 1024.1 |
| 20260904120122 | 10 | 247 | 0.0 | 3.2 | 0.15 | 0.20 | 0.20 | 93 | 1024.1 |
| 20260904115622 | 10 | 76 | 0.0 | 1.6 | 0.15 | 0.18 | 0.18 | 93 | 1024.1 |
| 20260904115123 | 10 | 76 | 0.0 | 4.8 | 0.15 | 0.18 | 0.18 | 92 | 1024.1 |
| 20260904114123 | 10 | 104 | 0.0 | 3.2 | 0.10 | 0.13 | 0.13 | 92 | 1024.0 |
| 20260904113627 | 10 | 131 | 0.0 | 0.0 | 0.10 | 0.13 | 0.13 | 92 | 1023.9 |
| 20260904113123 | 10 | 154 | 0.0 | 0.0 | 0.10 | 0.10 | 0.13 | 92 | 1023.7 |
| 20260904112621 | 9 | 151 | 0.0 | 0.0 | 0.10 | 0.10 | 0.10 | 92 | 1023.7 |
| 20260904112349 | 9 | 127 | 0.0 | 0.0 | 0.10 | 0.10 | 0.10 | 91 | 1023.6 |
| 20260904111622 | 10 | 127 | 0.0 | 0.0 | 0.08 | 0.08 | 0.08 | 91 | 1023.5 |
| 20260904111121 | 10 | 127 | 0.0 | 0.0 | 0.08 | 0.08 | 0.08 | 91 | 1023.4 |
| 20260904110622 | 10 | 127 | 0.0 | 0.0 | 0.08 | 0.08 | 0.08 | 91 | 1023.3 |
| 20260904110121 | 10 | 127 | 0.0 | 0.0 | 0.05 | 0.05 | 0.05 | 90 | 1023.2 |
| 20260904105623 | 10 | 127 | 0.0 | 3.2 | 0.03 | 0.03 | 0.03 | 90 | 1023.1 |
| 20260904105121 | 10 | 127 | 0.0 | 6.4 | 0.03 | 0.03 | 0.03 | 91 | 1023.0 |
| 20260904104623 | 9 | 109 | 1.6 | 6.4 | 0.03 | 0.03 | 0.03 | 91 | 1022.9 |
| 20260904104120 | 9 | 96 | 1.6 | 4.8 | 0.03 | 0.03 | 0.03 | 91 | 1022.7 |
| 20260904103621 | 9 | 241 | 0.0 | 0.0 | 0.03 | 0.03 | 0.03 | 91 | 1022.6 |
| 20260904103120 | 9 | 241 | 0.0 | 0.0 | 0.00 | 0.00 | 0.00 | 91 | 1022.5 |
| 20260904102620 | 9 | 241 | 0.0 | 0.0 | 0.00 | 0.00 | 0.00 | 90 | 1022.3 |
| 20260904102120 | 9 | 241 | 0.0 | 0.0 | 0.00 | 0.00 | 0.00 | 90 | 1022.2 |
| 20260904101620 | 9 | 241 | 0.0 | 0.0 | 0.00 | 0.00 | 0.00 | 90 | 1022.3 |
| 20260904101121 | 10 | 241 | 0.0 | 0.0 | 0.00 | 0.00 | 0.00 | 90 | 1022.2 |
| 20260904100620 | 10 | 241 | 0.0 | 0.0 | 0.00 | 0.00 | 0.00 | 89 | 1022.2 |
| 20260904100121 | 10 | 241 | 0.0 | 0.0 | 0.00 | 0.00 | 0.00 | 89 | 1022.2 |
| 20260904095844 | 10 | 224 | 0.0 | 0.0 | 0.00 | 0.00 | 0.00 | 87 | 1022.2 |
| 20260904095119 | 10 | 224 | 0.0 | 0.0 | 0.00 | 0.00 | 0.00 | 86 | 1022.2 |
| 20260904094619 | 10 | 224 | 0.0 | 0.0 | 0.00 | 0.00 | 0.00 | 85 | 1022.2 |
| 20260904094119 | 10 | 224 | 0.0 | 0.0 | 0.00 | 0.00 | 0.00 | 84 | 1022.2 |
| 20260904093620 | 10 | 224 | 0.0 | 0.0 | 0.00 | 0.03 | 0.00 | 84 | 1022.2 |
| 20260904093119 | 10 | 224 | 0.0 | 0.0 | 0.00 | 0.03 | 0.00 | 82 | 1022.1 |
| 20260904092620 | 10 | 224 | 0.0 | 0.0 | 0.00 | 0.03 | 0.00 | 82 | 1022.1 |
| 20260904092119 | 10 | 224 | 0.0 | 0.0 | 0.00 | 0.03 | 0.00 | 81 | 1022.2 |
| 20260904091620 | 10 | 224 | 0.0 | 0.0 | 0.00 | 0.03 | 0.00 | 79 | 1022.2 |
| 20260904091119 | 10 | 224 | 0.0 | 0.0 | 0.00 | 0.03 | 0.00 | 78 | 1022.1 |
| 20260904090618 | 10 | 224 | 0.0 | 0.0 | 0.00 | 0.03 | 0.00 | 79 | 1022.2 |
| 20260904090119 | 10 | 224 | 0.0 | 0.0 | 0.00 | 0.03 | 0.00 | 79 | 1022.1 |
| 20260904085618 | 10 | 224 | 0.0 | 0.0 | 0.00 | 0.03 | 0.00 | 80 | 1022.2 |
| 20260904085119 | 10 | 224 | 0.0 | 0.0 | 0.00 | 0.03 | 0.00 | 80 | 1022.1 |
| 20260904084618 | 10 | 224 | 0.0 | 0.0 | 0.00 | 0.03 | 0.00 | 81 | 1022.1 |
| 20260904084119 | 10 | 224 | 0.0 | 0.0 | 0.00 | 0.03 | 0.00 | 80 | 1022.1 |
| 20260904083618 | 10 | 224 | 0.0 | 0.0 | 0.00 | 0.03 | 0.00 | 80 | 1022.1 |
| 20260904083119 | 10 | 224 | 0.0 | 0.0 | 0.00 | 0.03 | 0.00 | 79 | 1022.2 |
| 20260904082617 | 10 | 224 | 0.0 | 0.0 | 0.00 | 0.03 | 0.00 | 79 | 1022.1 |
| 20260904082117 | 10 | 224 | 0.0 | 0.0 | 0.00 | 0.03 | 0.00 | 78 | 1022.2 |
| 20260904081617 | 10 | 224 | 0.0 | 0.0 | 0.00 | 0.03 | 0.00 | 78 | 1022.2 |
| 20260904081118 | 10 | 224 | 0.0 | 0.0 | 0.00 | 0.03 | 0.00 | 77 | 1022.2 |
| 20260904080618 | 10 | 224 | 0.0 | 0.0 | 0.00 | 0.03 | 0.00 | 78 | 1022.2 |
| 20260904080339 | 10 | 224 | 0.0 | 0.0 | 0.00 | 0.03 | 0.00 | 78 | 1022.2 |
| 20260904075618 | 11 | 224 | 0.0 | 0.0 | 0.00 | 0.03 | 0.00 | 78 | 1022.2 |
| 20260904075118 | 11 | 224 | 0.0 | 0.0 | 0.00 | 0.03 | 0.00 | 78 | 1022.3 |
| 20260904074617 | 11 | 224 | 0.0 | 0.0 | 0.00 | 0.03 | 0.00 | 78 | 1022.2 |
| 20260904074343 | 11 | 224 | 0.0 | 0.0 | 0.00 | 0.03 | 0.00 | 78 | 1022.2 |
| 20260904073616 | 11 | 224 | 0.0 | 0.0 | 0.00 | 0.03 | 0.00 | 77 | 1022.2 |
| 20260904073117 | 11 | 224 | 0.0 | 0.0 | 0.00 | 0.03 | 0.00 | 78 | 1022.3 |
| 20260904072617 | 11 | 224 | 0.0 | 3.2 | 0.00 | 0.03 | 0.00 | 77 | 1022.2 |
| 20260904072118 | 11 | 224 | 0.0 | 3.2 | 0.00 | 0.03 | 0.00 | 77 | 1022.2 |
| 20260904071616 | 11 | 243 | 0.0 | 3.2 | 0.00 | 0.03 | 0.00 | 77 | 1022.1 |
| 20260904071117 | 11 | 235 | 0.0 | 1.6 | 0.00 | 0.03 | 0.00 | 78 | 1022.1 |
| 20260904070615 | 11 | 257 | 0.0 | 0.0 | 0.00 | 0.03 | 0.00 | 78 | 1022.1 |
| 20260904070340 | 11 | 257 | 0.0 | 0.0 | 0.00 | 0.03 | 0.00 | 78 | 1022.1 |
| 20260904065615 | 11 | 257 | 0.0 | 1.6 | 0.00 | 0.03 | 0.03 | 78 | 1022.2 |
| 20260904065115 | 11 | 257 | 0.0 | 1.6 | 0.00 | 0.03 | 0.03 | 78 | 1022.1 |
| 20260904064834 | 11 | 257 | 0.0 | 0.0 | 0.00 | 0.03 | 0.03 | 78 | 1022.0 |
| 20260904064122 | 11 | 257 | 0.0 | 3.2 | 0.00 | 0.03 | 0.03 | 79 | 1022.1 |
| 20260904063616 | 11 | 257 | 0.0 | 3.2 | 0.00 | 0.03 | 0.03 | 79 | 1022.1 |
| 20260904063336 | 11 | 244 | 0.0 | 0.0 | 0.00 | 0.03 | 0.03 | 79 | 1022.0 |
| 20260904062844 | 11 | 244 | 0.0 | 0.0 | 0.00 | 0.03 | 0.03 | 79 | 1022.0 |
| 20260904062342 | 11 | 244 | 0.0 | 0.0 | 0.00 | 0.03 | 0.03 | 79 | 1022.0 |
| 20260904061838 | 11 | 244 | 0.0 | 0.0 | 0.00 | 0.03 | 0.03 | 78 | 1022.0 |
| 20260904061116 | 11 | 243 | 0.0 | 0.0 | 0.00 | 0.03 | 0.03 | 78 | 1022.0 |
| 20260904060614 | 11 | 243 | 0.0 | 1.6 | 0.00 | 0.03 | 0.03 | 78 | 1021.9 |
| 20260904060115 | 11 | 243 | 0.0 | 1.6 | 0.00 | 0.03 | 0.03 | 79 | 1021.9 |
| 20260904055614 | 11 | 186 | 0.0 | 0.0 | 0.00 | 0.03 | 0.03 | 79 | 1022.0 |
| 20260904055343 | 11 | 186 | 0.0 | 0.0 | 0.00 | 0.03 | 0.03 | 78 | 1021.9 |
| 20260904054613 | 11 | 186 | 0.0 | 0.0 | 0.00 | 0.03 | 0.03 | 78 | 1022.1 |
| 20260904054605 | 11 | 186 | 0.0 | 0.0 | 0.00 | 0.03 | 0.03 | 78 | 1022.1 |
| 20260904053613 | 11 | 182 | 0.0 | 0.0 | 0.00 | 0.03 | 0.03 | 78 | 1022.1 |
| 20260904053115 | 11 | 182 | 0.0 | 0.0 | 0.00 | 0.03 | 0.03 | 78 | 1022.1 |
| 20260904052614 | 11 | 182 | 0.0 | 0.0 | 0.00 | 0.03 | 0.03 | 77 | 1022.1 |
| 20260904052113 | 11 | 182 | 0.0 | 0.0 | 0.00 | 0.03 | 0.03 | 77 | 1022.0 |
| 20260904051614 | 11 | 182 | 0.0 | 0.0 | 0.00 | 0.03 | 0.03 | 76 | 1022.0 |
| 20260904051112 | 11 | 251 | 0.0 | 3.2 | 0.00 | 0.03 | 0.03 | 76 | 1022.1 |
| 20260904050614 | 11 | 254 | 0.0 | 3.2 | 0.00 | 0.03 | 0.03 | 76 | 1022.1 |
| 20260904050114 | 12 | 254 | 0.0 | 0.0 | 0.00 | 0.03 | 0.03 | 76 | 1022.2 |
| 20260904045613 | 12 | 309 | 0.0 | 0.0 | 0.00 | 0.03 | 0.03 | 75 | 1022.1 |
| 20260904045113 | 12 | 309 | 0.0 | 1.6 | 0.00 | 0.03 | 0.03 | 74 | 1022.1 |
| 20260904044613 | 12 | 309 | 0.0 | 1.6 | 0.00 | 0.03 | 0.03 | 73 | 1022.1 |
| 20260904044239 | 12 | 248 | 1.6 | 4.8 | 0.00 | 0.03 | 0.03 | 73 | 1022.2 |
| 20260904044142 | 12 | 303 | 1.6 | 3.2 | 0.00 | 0.03 | 0.03 | 72 | 1022.1 |
| 20260904043924 | 12 | 250 | 0.0 | 4.8 | 0.00 | 0.03 | 0.03 | 72 | 1022.2 |
| 20260904043055 | 12 | 248 | 0.0 | 3.2 | 0.00 | 0.03 | 0.03 | 73 | 1022.2 |
| 20260904042114 | 12 | 238 | 0.0 | 0.0 | 0.00 | 0.03 | 0.03 | 74 | 1022.2 |
| 20260904041838 | 12 | 238 | 0.0 | 3.2 | 0.00 | 0.03 | 0.03 | 73 | 1022.2 |
| 20260904041114 | 12 | 238 | 0.0 | 3.2 | 0.00 | 0.03 | 0.03 | 74 | 1022.2 |
| 20260904040834 | 12 | 251 | 0.0 | 0.0 | 0.00 | 0.03 | 0.03 | 74 | 1022.1 |
| 20260904040340 | 12 | 251 | 0.0 | 0.0 | 0.00 | 0.03 | 0.03 | 74 | 1022.0 |
| 20260904035615 | 12 | 240 | 0.0 | 0.0 | 0.00 | 0.03 | 0.03 | 74 | 1022.1 |
| 20260904035111 | 12 | 240 | 0.0 | 0.0 | 0.00 | 0.03 | 0.03 | 74 | 1022.0 |
| 20260904034612 | 12 | 240 | 0.0 | 0.0 | 0.00 | 0.03 | 0.03 | 75 | 1022.0 |
| 20260904034111 | 12 | 248 | 0.0 | 0.0 | 0.00 | 0.03 | 0.03 | 74 | 1022.0 |
| 20260904033612 | 12 | 248 | 0.0 | 0.0 | 0.00 | 0.03 | 0.03 | 73 | 1021.9 |
| 20260904033334 | 12 | 248 | 0.0 | 0.0 | 0.00 | 0.03 | 0.03 | 73 | 1021.9 |
| 20260904032612 | 12 | 248 | 0.0 | 0.0 | 0.00 | 0.03 | 0.03 | 73 | 1021.9 |
| 20260904032111 | 12 | 248 | 0.0 | 0.0 | 0.00 | 0.03 | 0.03 | 73 | 1021.9 |
| 20260904031611 | 12 | 257 | 0.0 | 0.0 | 0.00 | 0.03 | 0.03 | 73 | 1021.9 |
| 20260904031111 | 12 | 340 | 0.0 | 0.0 | 0.00 | 0.03 | 0.03 | 73 | 1021.9 |
| 20260904030610 | 12 | 340 | 0.0 | 0.0 | 0.00 | 0.03 | 0.03 | 73 | 1021.8 |
| 20260904030109 | 12 | 340 | 0.0 | 0.0 | 0.00 | 0.03 | 0.03 | 73 | 1021.8 |
| 20260904025610 | 12 | 272 | 0.0 | 0.0 | 0.00 | 0.03 | 0.03 | 72 | 1021.8 |
| 20260904025333 | 12 | 235 | 0.0 | 0.0 | 0.00 | 0.03 | 0.03 | 72 | 1021.8 |
| 20260904024610 | 12 | 235 | 0.0 | 0.0 | 0.00 | 0.03 | 0.03 | 72 | 1021.8 |
| 20260904024109 | 12 | 216 | 0.0 | 0.0 | 0.00 | 0.03 | 0.03 | 71 | 1021.8 |
| 20260904023610 | 13 | 214 | 0.0 | 0.0 | 0.00 | 0.03 | 0.03 | 70 | 1021.8 |
| 20260904023109 | 13 | 358 | 0.0 | 0.0 | 0.00 | 0.03 | 0.03 | 68 | 1021.7 |
| 20260904022831 | 13 | 358 | 0.0 | 0.0 | 0.00 | 0.03 | 0.03 | 66 | 1021.6 |
| 20260904022108 | 13 | 13 | 0.0 | 0.0 | 0.00 | 0.03 | 0.03 | 64 | 1021.5 |
| 20260904021609 | 13 | 307 | 0.0 | 0.0 | 0.00 | 0.03 | 0.03 | 64 | 1021.5 |
| 20260904021107 | 13 | 334 | 0.0 | 0.0 | 0.00 | 0.03 | 0.03 | 63 | 1021.5 |
| 20260904020609 | 13 | 314 | 0.0 | 0.0 | 0.00 | 0.03 | 0.03 | 62 | 1021.5 |
| 20260904020107 | 14 | 314 | 0.0 | 4.8 | 0.00 | 0.03 | 0.03 | 61 | 1021.4 |
| 20260904015608 | 14 | 324 | 0.0 | 4.8 | 0.00 | 0.03 | 0.03 | 61 | 1021.5 |
| 20260904015107 | 14 | 292 | 1.6 | 4.8 | 0.00 | 0.03 | 0.03 | 60 | 1021.4 |
| 20260904014607 | 14 | 313 | 1.6 | 6.4 | 0.00 | 0.03 | 0.03 | 60 | 1021.3 |
| 20260904014115 | 14 | 305 | 1.6 | 6.4 | 0.00 | 0.03 | 0.03 | 60 | 1021.4 |
| 20260904013608 | 14 | 300 | 1.6 | 4.8 | 0.00 | 0.03 | 0.03 | 60 | 1021.4 |
| 20260904013109 | 14 | 299 | 0.0 | 6.4 | 0.00 | 0.03 | 0.03 | 61 | 1021.5 |
| 20260904012608 | 14 | 11 | 1.6 | 6.4 | 0.00 | 0.03 | 0.03 | 60 | 1021.4 |
| 20260904012109 | 14 | 296 | 1.6 | 8.0 | 0.00 | 0.03 | 0.03 | 60 | 1021.5 |
| 20260904011836 | 14 | 319 | 3.2 | 16.1 | 0.00 | 0.03 | 0.03 | 60 | 1021.5 |
| 20260904011107 | 14 | 219 | 3.2 | 16.1 | 0.00 | 0.03 | 0.03 | 60 | 1021.4 |
| 20260904010608 | 14 | 302 | 3.2 | 8.0 | 0.00 | 0.03 | 0.03 | 60 | 1021.4 |
| 20260904010106 | 14 | 312 | 3.2 | 6.4 | 0.00 | 0.03 | 0.03 | 60 | 1021.4 |
| 20260904005608 | 14 | 316 | 1.6 | 9.7 | 0.00 | 0.03 | 0.03 | 60 | 1021.4 |
| 20260904005108 | 14 | 293 | 1.6 | 9.7 | 0.00 | 0.03 | 0.03 | 60 | 1021.4 |
| 20260904004835 | 14 | 324 | 1.6 | 4.8 | 0.00 | 0.03 | 0.03 | 59 | 1021.4 |
| 20260904004107 | 14 | 306 | 1.6 | 6.4 | 0.00 | 0.03 | 0.03 | 60 | 1021.4 |
| 20260904003830 | 14 | 293 | 3.2 | 6.4 | 0.00 | 0.03 | 0.03 | 61 | 1021.4 |
| 20260904003106 | 14 | 300 | 3.2 | 6.4 | 0.00 | 0.03 | 0.03 | 62 | 1021.4 |
| 20260904002607 | 14 | 298 | 1.6 | 6.4 | 0.00 | 0.03 | 0.03 | 63 | 1021.4 |
| 20260904002107 | 14 | 300 | 3.2 | 6.4 | 0.00 | 0.03 | 0.03 | 63 | 1021.4 |
| 20260904001606 | 15 | 320 | 1.6 | 4.8 | 0.00 | 0.03 | 0.03 | 62 | 1021.4 |
| 20260904001109 | 15 | 312 | 1.6 | 4.8 | 0.00 | 0.03 | 0.03 | 62 | 1021.4 |
| 20260904001100 | 15 | 306 | 1.6 | 4.8 | 0.00 | 0.03 | 0.03 | 61 | 1021.4 |
| 20260904000108 | 15 | 312 | 1.6 | 4.8 | 0.00 | 0.03 | 0.03 | 61 | 1021.4 |
| 20260903235610 | 15 | 300 | 1.6 | 4.8 | 0.00 | 0.03 | 0.03 | 61 | 1021.4 |
| 20260903235105 | 15 | 329 | 1.6 | 4.8 | 0.00 | 0.03 | 0.03 | 61 | 1021.4 |
| 20260903234608 | 15 | 303 | 3.2 | 4.8 | 0.00 | 0.03 | 0.03 | 61 | 1021.5 |
| 20260903234106 | 15 | 351 | 3.2 | 9.7 | 0.00 | 0.03 | 0.03 | 58 | 1021.4 |
| 20260903233606 | 15 | 324 | 3.2 | 9.7 | 0.00 | 0.03 | 0.03 | 57 | 1021.4 |
| 20260903233106 | 15 | 331 | 3.2 | 9.7 | 0.00 | 0.03 | 0.03 | 56 | 1021.4 |
| 20260903232606 | 15 | 290 | 1.6 | 9.7 | 0.00 | 0.03 | 0.03 | 57 | 1021.5 |
| 20260903232105 | 15 | 298 | 3.2 | 9.7 | 0.00 | 0.03 | 0.03 | 56 | 1021.4 |
| 20260903231606 | 15 | 355 | 3.2 | 9.7 | 0.00 | 0.03 | 0.03 | 56 | 1021.5 |
| 20260903231105 | 15 | 309 | 3.2 | 9.7 | 0.00 | 0.03 | 0.03 | 55 | 1021.5 |
| 20260903230610 | 15 | 3 | 1.6 | 8.0 | 0.00 | 0.03 | 0.03 | 57 | 1021.5 |
| 20260903230105 | 15 | 309 | 3.2 | 9.7 | 0.00 | 0.03 | 0.03 | 56 | 1021.6 |
| 20260903225601 | 15 | 331 | 3.2 | 9.7 | 0.00 | 0.03 | 0.03 | 56 | 1021.8 |
| 20260903225105 | 15 | 331 | 3.2 | 8.0 | 0.00 | 0.03 | 0.03 | 57 | 1021.6 |
| 20260903224604 | 15 | 343 | 3.2 | 8.0 | 0.00 | 0.03 | 0.03 | 58 | 1021.6 |
| 20260903224329 | 15 | 290 | 3.2 | 8.0 | 0.00 | 0.03 | 0.03 | 58 | 1021.6 |
| 20260903223604 | 15 | 306 | 3.2 | 8.0 | 0.00 | 0.03 | 0.03 | 57 | 1021.7 |
| 20260903223106 | 15 | 296 | 4.8 | 8.0 | 0.00 | 0.03 | 0.03 | 58 | 1021.6 |
| 20260903222604 | 16 | 300 | 3.2 | 8.0 | 0.00 | 0.03 | 0.03 | 56 | 1021.6 |
| 20260903222104 | 16 | 334 | 3.2 | 8.0 | 0.00 | 0.03 | 0.03 | 56 | 1021.5 |
| 20260903221601 | 16 | 319 | 3.2 | 8.0 | 0.00 | 0.03 | 0.03 | 56 | 1021.5 |
| 20260903221322 | 15 | 343 | 1.6 | 6.4 | 0.00 | 0.03 | 0.03 | 59 | 1021.4 |
| 20260903220604 | 15 | 281 | 1.6 | 9.7 | 0.00 | 0.03 | 0.03 | 60 | 1021.4 |
| 20260903215604 | 16 | 293 | 3.2 | 8.0 | 0.00 | 0.03 | 0.03 | 55 | 1021.4 |
| 20260903215549 | 17 | 48 | 6.4 | 14.5 | 0.00 | 0.03 | 0.03 | 51 | 1021.4 |
| 20260903214603 | 18 | 47 | 8.0 | 16.1 | 0.00 | 0.03 | 0.03 | 45 | 1021.4 |
| 20260903214105 | 18 | 107 | 6.4 | 16.1 | 0.00 | 0.03 | 0.03 | 41 | 1021.0 |
| 20260903213100 | 18 | 99 | 6.4 | 22.5 | 0.00 | 0.03 | 0.03 | 41 | 1021.1 |
| 20260903212559 | 18 | 130 | 8.0 | 22.5 | 0.00 | 0.03 | 0.03 | 42 | 1021.0 |
| 20260903212326 | 18 | 102 | 6.4 | 20.9 | 0.00 | 0.03 | 0.03 | 43 | 1021.0 |
| 20260903211602 | 18 | 93 | 8.0 | 24.1 | 0.00 | 0.03 | 0.03 | 43 | 1021.0 |
| 20260903211103 | 18 | 107 | 9.7 | 25.7 | 0.00 | 0.03 | 0.03 | 43 | 1020.9 |
| 20260903210602 | 18 | 99 | 11.3 | 25.7 | 0.00 | 0.03 | 0.03 | 43 | 1020.9 |
| 20260903205601 | 18 | 128 | 16.1 | 27.4 | 0.00 | 0.03 | 0.03 | 44 | 1020.8 |
| 20260903205101 | 18 | 147 | 12.9 | 22.5 | 0.00 | 0.03 | 0.03 | 43 | 1020.7 |
| 20260903204602 | 18 | 58 | 12.9 | 20.9 | 0.00 | 0.03 | 0.03 | 44 | 1020.8 |
| 20260903204540 | 18 | 121 | 9.7 | 20.9 | 0.00 | 0.03 | 0.03 | 45 | 1020.7 |
| 20260903203603 | 18 | 96 | 12.9 | 25.7 | 0.00 | 0.03 | 0.03 | 45 | 1020.7 |
| 20260903203100 | 18 | 100 | 12.9 | 25.7 | 0.00 | 0.03 | 0.03 | 45 | 1020.6 |
| 20260903202601 | 18 | 133 | 11.3 | 25.7 | 0.00 | 0.03 | 0.03 | 46 | 1020.6 |
| 20260903202320 | 18 | 147 | 12.9 | 25.7 | 0.00 | 0.03 | 0.03 | 44 | 1020.7 |
| 20260903201559 | 18 | 130 | 12.9 | 20.9 | 0.00 | 0.03 | 0.03 | 44 | 1020.7 |
| 20260903201100 | 19 | 118 | 11.3 | 29.0 | 0.00 | 0.03 | 0.03 | 44 | 1020.7 |
| 20260903200559 | 19 | 140 | 14.5 | 29.0 | 0.00 | 0.03 | 0.03 | 43 | 1020.6 |
| 20260903200100 | 19 | 62 | 8.0 | 17.7 | 0.00 | 0.03 | 0.03 | 44 | 1020.7 |
| 20260903195826 | 18 | 96 | 3.2 | 19.3 | 0.00 | 0.03 | 0.03 | 46 | 1020.8 |
| 20260903195102 | 18 | 114 | 9.7 | 19.3 | 0.00 | 0.03 | 0.03 | 43 | 1020.8 |
| 20260903194600 | 18 | 131 | 8.0 | 24.1 | 0.00 | 0.03 | 0.03 | 43 | 1020.8 |
| 20260903194319 | 19 | 141 | 12.9 | 24.1 | 0.00 | 0.03 | 0.03 | 42 | 1020.8 |
| 20260903193600 | 19 | 52 | 12.9 | 24.1 | 0.00 | 0.03 | 0.03 | 45 | 1020.7 |
| 20260903193100 | 19 | 140 | 9.7 | 19.3 | 0.00 | 0.03 | 0.03 | 45 | 1020.7 |
| 20260903192821 | 18 | 59 | 6.4 | 19.3 | 0.00 | 0.03 | 0.03 | 45 | 1020.7 |
| 20260903192321 | 18 | 114 | 11.3 | 19.3 | 0.00 | 0.03 | 0.03 | 47 | 1020.6 |
| 20260903191823 | 18 | 118 | 9.7 | 25.7 | 0.00 | 0.03 | 0.03 | 47 | 1020.5 |
| 20260903191101 | 18 | 133 | 8.0 | 25.7 | 0.00 | 0.03 | 0.03 | 46 | 1020.6 |
| 20260903190601 | 18 | 59 | 8.0 | 20.9 | 0.00 | 0.03 | 0.03 | 46 | 1020.6 |
| 20260903190105 | 18 | 61 | 9.7 | 20.9 | 0.00 | 0.03 | 0.03 | 47 | 1020.6 |
| 20260903185559 | 18 | 54 | 9.7 | 20.9 | 0.00 | 0.03 | 0.03 | 40 | 1020.6 |
| 20260903185100 | 18 | 120 | 9.7 | 20.9 | 0.00 | 0.03 | 0.03 | 40 | 1020.6 |
| 20260903184559 | 18 | 69 | 8.0 | 17.7 | 0.00 | 0.03 | 0.03 | 42 | 1020.6 |
| 20260903184059 | 18 | 104 | 9.7 | 17.7 | 0.00 | 0.03 | 0.03 | 42 | 1020.6 |
| 20260903183819 | 18 | 102 | 4.8 | 14.5 | 0.00 | 0.03 | 0.03 | 45 | 1020.7 |
| 20260903183056 | 18 | 76 | 8.0 | 11.3 | 0.00 | 0.03 | 0.03 | 45 | 1020.7 |
| 20260903182813 | 18 | 155 | 3.2 | 11.3 | 0.00 | 0.03 | 0.03 | 43 | 1020.7 |
| 20260903182318 | 18 | 128 | 6.4 | 16.1 | 0.00 | 0.03 | 0.03 | 46 | 1020.7 |